»·PEaware :: N5627E KSBA-KSNA

N5627E :: KSBA-KSNA

FLIGHT INFORMATION

Flight Status: Arrived
Operator: Privately registered:
United States
More flights under this callsign
Pilot: Jeb B. (17306)
Aircraft: Unknown
(E50P)
More flights by this aircraft type
Origin: KSBA Santa Barbara Mun
United States
Destination: KSNA John Wayne-Orange Co
United States
More flights between these airports :: More routes between these airports
Route: +KWANG VTU V208 SXC SLI
File this flight plan on PilotEdge
Remarks:
Altitude:
(Current/Filed)
11,000ft
Speed:
(Current/Filed)
275kts
Departed: 04-Jan-18 03:15 PM
Arrived: 04-Jan-18 03:53 PM
Distance/Time
Traveled:
108nm/0:38
Distance/Time
To Go:
Arrived

Flight Plot

Page will automatically refresh every two minutes.


Map Options




Map Legend


Flown Route
Filed Route
Departure Airport
Arrival Airport
Navaid (VOR, NDB)
Fix

Horizontal Profiles

Position Reports

Time Latitude Longitude Heading Altitude Ground
Speed
04-Jan-18 15:05 34.432560 -119.835119 71 16ft 0kts
04-Jan-18 15:06 34.432560 -119.835119 71 16ft 0kts
04-Jan-18 15:07 34.432560 -119.835119 71 16ft 0kts
04-Jan-18 15:08 34.432560 -119.835119 71 16ft 0kts
04-Jan-18 15:09 34.432560 -119.835119 71 16ft 0kts
04-Jan-18 15:10 34.432560 -119.835119 71 16ft 0kts
04-Jan-18 15:11 34.432560 -119.835119 71 16ft 0kts
04-Jan-18 15:12 34.432560 -119.835119 71 16ft 0kts
04-Jan-18 15:13 34.432560 -119.835119 71 16ft 0kts
04-Jan-18 15:14 34.432560 -119.835119 71 16ft 0kts
04-Jan-18 15:15 34.432560 -119.835119 71 16ft 0kts
04-Jan-18 15:16 34.432347 -119.835272 231 17ft 8kts
04-Jan-18 15:17 34.431162 -119.838317 247 17ft 9kts
04-Jan-18 15:18 34.430707 -119.839758 248 17ft 0kts
04-Jan-18 15:19 34.430707 -119.839758 248 17ft 0kts
04-Jan-18 15:20 34.430707 -119.839758 247 17ft 0kts
04-Jan-18 15:21 34.412138 -119.834358 162 471ft 194kts
04-Jan-18 15:22 34.357363 -119.814237 162 1465ft 207kts
04-Jan-18 15:23 34.312874 -119.797901 162 2689ft 186kts
04-Jan-18 15:24 34.259092 -119.778519 162 5070ft 212kts
04-Jan-18 15:25 34.208304 -119.759242 162 6765ft 237kts
04-Jan-18 15:26 34.150237 -119.728300 128 8744ft 244kts
04-Jan-18 15:27 34.108763 -119.656772 128 10763ft 290kts
04-Jan-18 15:28 34.059929 -119.573219 128 11048ft 308kts
04-Jan-18 15:29 34.000790 -119.472148 128 11049ft 328kts
04-Jan-18 15:30 33.957461 -119.398267 128 11049ft 329kts
04-Jan-18 15:31 33.906697 -119.311940 129 11045ft 332kts
04-Jan-18 15:32 33.846294 -119.209500 129 11049ft 332kts
04-Jan-18 15:33 33.801910 -119.134401 129 11049ft 331kts
04-Jan-18 15:34 33.749243 -119.045485 129 11049ft 331kts
04-Jan-18 15:35 33.695940 -118.955795 128 11054ft 332kts
04-Jan-18 15:36 33.643199 -118.867193 128 11063ft 328kts
04-Jan-18 15:37 33.589975 -118.777975 127 11076ft 330kts
04-Jan-18 15:38 33.536829 -118.689061 127 11076ft 331kts
04-Jan-18 15:39 33.483951 -118.600842 127 11075ft 321kts
04-Jan-18 15:40 33.439925 -118.513621 96 11073ft 310kts
04-Jan-18 15:41 33.490375 -118.434205 31 10038ft 341kts
04-Jan-18 15:42 33.564187 -118.375839 31 8525ft 313kts
04-Jan-18 15:43 33.631697 -118.322164 31 7106ft 300kts
04-Jan-18 15:44 33.698864 -118.268962 31 7032ft 299kts
04-Jan-18 15:45 33.765976 -118.215368 37 7026ft 285kts
04-Jan-18 15:46 33.786731 -118.127560 81 5892ft 294kts
04-Jan-18 15:47 33.796807 -118.033138 81 5028ft 278kts
04-Jan-18 15:48 33.796039 -117.940496 118 4392ft 304kts
04-Jan-18 15:49 33.763797 -117.862842 82 3127ft 235kts
04-Jan-18 15:50 33.805949 -117.825793 20 3029ft 207kts
04-Jan-18 15:51 33.860041 -117.809481 11 3025ft 200kts
04-Jan-18 15:52 33.902255 -117.776930 85 3031ft 200kts
04-Jan-18 15:53 33.870666 -117.739423 205 3032ft 201kts
04-Jan-18 15:54 33.823560 -117.774713 208 3029ft 203kts
04-Jan-18 15:55 33.776033 -117.805152 207 2167ft 179kts
04-Jan-18 15:56 33.737273 -117.829771 207 1319ft 138kts
04-Jan-18 15:57 33.705548 -117.849899 207 635ft 120kts
04-Jan-18 15:58 33.679004 -117.866732 206 71ft 93kts
04-Jan-18 15:59 33.672103 -117.872171 249 63ft 0kts
04-Jan-18 16:00 33.672070 -117.872276 249 63ft 4kts
04-Jan-18 16:01 33.673814 -117.872234 117 63ft 0kts
04-Jan-18 16:02 33.673814 -117.872234 117 63ft 0kts
04-Jan-18 16:03 33.673814 -117.872234 117 63ft 0kts
04-Jan-18 16:04 33.673814 -117.872234 117 63ft 0kts
04-Jan-18 16:05 33.673814 -117.872234 117 63ft 0kts
04-Jan-18 16:06 33.673814 -117.872234 117 63ft 0kts
04-Jan-18 16:07 33.673814 -117.872234 117 63ft 0kts
04-Jan-18 16:08 33.673814 -117.872234 117 63ft 0kts
04-Jan-18 16:09 33.673814 -117.872234 117 63ft 0kts
04-Jan-18 16:10 33.673814 -117.872234 117 63ft 0kts
04-Jan-18 16:11 33.673814 -117.872234 117 63ft 0kts
04-Jan-18 16:12 33.673814 -117.872234 117 63ft 0kts
04-Jan-18 16:13 33.673814 -117.872234 117 63ft 0kts

Navigation Log

Ident Type
1. KSBA Airport
2. KWANG Fix
3. VTU Navaid
4. WEEZL Fix
5. SXC Navaid
6. SLI Navaid
7. KSNA Airport